Nearby METAR Reports

 

KHFD - Hartford/Brainar, Connecticut, USA
Distance from station: ESE 5mi, 8km
Updated: Mon, 01-Mar-2021 10:11pm EST
Light snow, Overcast
Light snow, Overcast
 Wind from WNW
Wind: WNW 20 mph , 31 km/h, Gust: 33 mph , 54 km/h
Temperature: 30°F , -1°C
Wind Chill: 17°F , -8°C
Dew Point: 19°F , -7°C
Humidity: 64%
Barometer: 29.77 inHg , 1008.1 hPa
Summary: Light Snow
Clouds: Overcast
Visibility: 7 miles , 11 km
Cloud details: Mostly cloudy 3200 ft
Overcast 4500 ft
2021/03/02 03:11 KHFD 020311Z 30017G29KT 7SM -SN BKN032 OVC045 M01/M07 A2977 RMK AO2 PK WND 30032/0257 P0000 T10061072
KBDL - Windsor Locks, Connecticut, USA
Distance from station: NNE 12mi, 20km
Updated: Mon, 01-Mar-2021 9:51pm EST
Light snow, Mostly cloudy
Light snow, Mostly cloudy
 Wind from NW
Wind: NW 14 mph , 22 km/h, Gust: 29 mph , 46 km/h
Temperature: 28°F , -2°C
Wind Chill: 17°F , -8°C
Dew Point: 19°F , -7°C
Humidity: 69%
Barometer: 29.74 inHg , 1007.1 hPa
Summary: Light Snow
Clouds: Mostly cloudy
Visibility: 8 miles , 13 km
Cloud details: Partly cloudy 2100 ft
Mostly cloudy 4500 ft
Mostly cloudy 6000 ft
2021/03/02 02:51 KBDL 020251Z 32012G25KT 8SM -SN SCT021 BKN045 BKN060 M02/M07 A2974 RMK AO2 PK WND 30034/0200 SNB29 SLP073 P0000 60000 T10171067 53020
 
KMMK - Meriden, Connecticut, USA
Distance from station: SSW 18mi, 28km
Updated: Mon, 01-Mar-2021 9:53pm EST
Light snow, Mostly cloudy
Light snow, Mostly cloudy
 Wind from NW
Wind: NW 15 mph , 24 km/h, Gust: 29 mph , 46 km/h
Temperature: 34°F , 1°C
Wind Chill: 24°F , -4°C
Dew Point: 18°F , -8°C
Humidity: 51%
Barometer: 29.75 inHg , 1007.5 hPa
Summary: Light Snow
Clouds: Mostly cloudy
Visibility: 8 miles , 13 km
Cloud details: Mostly cloudy 4500 ft
Mostly cloudy 6000 ft
2021/03/02 02:53 KMMK 020253Z AUTO 31013G25KT 8SM -SN BKN045 BKN060 01/M08 A2975 RMK AO2 PK WND 25026/0155 SNE0156B44 SLP074 P0000 60000 T00111083 53017
KBAF - Westfield, Massachusetts, USA
Distance from station: N 28mi, 45km
Updated: Mon, 01-Mar-2021 9:53pm EST
Few Clouds
Few Clouds
 Wind from NW
Wind: NW 32 mph , 52 km/h, Gust: 60 mph , 96 km/h
Temperature: 28°F , -2°C
Wind Chill: 12°F , -11°C
Dew Point: 10°F , -12°C
Humidity: 47%
Barometer: 29.74 inHg , 1007.1 hPa
Clouds: Few Clouds
Visibility: 10 miles , 16 km
Cloud details: Few Clouds 4700 ft
2021/03/02 02:53 KBAF 020253Z 31028G52KT 10SM FEW047 M02/M12 A2974 RMK AO2 PK WND 32052/0244 SNB19E31 SLP077 P0000 60000 T10221117 53024
 
KIJD - Willimantic, Connecticut, USA
Distance from station: E 29mi, 46km
Updated: Mon, 01-Mar-2021 10:19pm EST
Light snow, Mostly cloudy
Light snow, Mostly cloudy
 Wind from WNW
Wind: WNW 15 mph , 24 km/h, Gust: 35 mph , 56 km/h
Temperature: 28°F , -2°C
Wind Chill: 16°F , -9°C
Dew Point: 21°F , -6°C
Humidity: 74%
Barometer: 29.74 inHg , 1007.1 hPa
Summary: Light Snow
Clouds: Mostly cloudy
Visibility: 5 miles , 8 km
Cloud details: Few Clouds 3700 ft
Mostly cloudy 5000 ft
Mostly cloudy 7000 ft
2021/03/02 03:19 KIJD 020319Z AUTO 30013G30KT 5SM -SN FEW037 BKN050 BKN070 M02/M06 A2974 RMK AO2 PK WND 33036/0306 WSHFT 0259 SNB04 PRESRR P0000 T10171061
KOXC - Oxford/Waterbury, Connecticut, USA
Distance from station: SW 29mi, 46km
Updated: Mon, 01-Mar-2021 9:51pm EST
Light snow, Mostly cloudy
Light snow, Mostly cloudy
 Wind from W
Wind: W 21 mph , 33 km/h, Gust: 40 mph , 65 km/h
Temperature: 30°F , -1°C
Wind Chill: 17°F , -8°C
Dew Point: 19°F , -7°C
Humidity: 64%
Barometer: 29.74 inHg , 1007.1 hPa
Summary: Light Snow
Clouds: Mostly cloudy
Visibility: 10 miles , 16 km
Cloud details: Few Clouds 4200 ft
Partly cloudy 5000 ft
Mostly cloudy 6000 ft
2021/03/02 02:51 KOXC 020251Z AUTO 28018G35KT 10SM -SN FEW042 SCT050 BKN060 M01/M07 A2974 RMK AO2 PK WND 28035/0244 SNE15B51 SLP088 P0000 60000 T10061067 53016 FZRANO
 
KSNC - Chester, Connecticut, USA
Distance from station: SSE 29mi, 47km
Updated: Mon, 01-Mar-2021 10:35pm EST
Light, Mostly cloudy
Light, Mostly cloudy
 Wind from WNW
Wind: WNW 17 mph , 28 km/h, Gust: 30 mph , 48 km/h
Temperature: 34°F , 1°C
Wind Chill: 23°F , -5°C
Dew Point: 16°F , -9°C
Humidity: 48%
Barometer: 29.72 inHg , 1006.4 hPa
Summary: Light
Clouds: Mostly cloudy
Visibility: 10 miles , 16 km
Cloud details: Few Clouds 1600 ft
Partly cloudy 4200 ft
Mostly cloudy 5000 ft
2021/03/02 03:35 KSNC 020335Z AUTO 30015G26KT 10SM -UP FEW016 SCT042 BKN050 01/M09 A2972 RMK AO2
KCEF - Chicopee/Westove, Massachusetts, USA
Distance from station: NNE 32mi, 52km
Updated: Mon, 01-Mar-2021 10:22pm EST
Light snow, Mostly cloudy
Light snow, Mostly cloudy
 Wind from NW
Wind: NW 26 mph , 43 km/h, Gust: 38 mph , 61 km/h
Temperature: 27°F , -3°C
Wind Chill: 12°F , -11°C
Dew Point: 10°F , -12°C
Humidity: 50%
Barometer: 29.73 inHg , 1006.8 hPa
Summary: Light Snow
Clouds: Mostly cloudy
Visibility: 7 miles , 11 km
Cloud details: Mostly cloudy 4600 ft
2021/03/02 03:22 KCEF 020322Z 31023G33KT 7SM -SN BKN046 M03/M12 A2973 RMK AO2A SLP076
 
KHVN - New Haven/Tweed, Connecticut, USA
Distance from station: S 35mi, 56km
Updated: Mon, 01-Mar-2021 9:53pm EST
Few Clouds
Few Clouds
 Wind from WNW
Wind: WNW 28 mph , 44 km/h, Gust: 47 mph , 76 km/h
Temperature: 37°F , 3°C
Wind Chill: 25°F , -4°C
Dew Point: 19°F , -7°C
Humidity: 48%
Barometer: 29.77 inHg , 1008.1 hPa
Clouds: Few Clouds
Visibility: 10 miles , 16 km
Cloud details: Few Clouds 3600 ft
2021/03/02 02:53 KHVN 020253Z 30024G41KT 10SM FEW036 03/M07 A2977 RMK AO2 PK WND 29041/0253 SLP081 T00281067 53024
KBDR - Bridgeport, Connecticut, USA
Distance from station: SSW 46mi, 74km
Updated: Mon, 01-Mar-2021 9:52pm EST
Partly cloudy
Partly cloudy
 Wind from WNW
Wind: WNW 21 mph , 33 km/h, Gust: 33 mph , 54 km/h
Temperature: 36°F , 2°C
Wind Chill: 25°F , -4°C
Dew Point: 18°F , -8°C
Humidity: 48%
Barometer: 29.77 inHg , 1008.1 hPa
Clouds: Partly cloudy
Visibility: 10 miles , 16 km
Cloud details: Partly cloudy 5500 ft
2021/03/02 02:52 KBDR 020252Z 29018G29KT 10SM SCT055 02/M08 A2977 RMK AO2 PK WND 30038/0159 SLP082 T00221083 53019
 
KGON - Groton/New Londo, Connecticut, USA
Distance from station: SE 46mi, 75km
Updated: Mon, 01-Mar-2021 9:56pm EST
Overcast
Overcast
 Wind from NW
Wind: NW 12 mph , 19 km/h
Temperature: 36°F , 2°C
Wind Chill: 28°F , -2°C
Dew Point: 21°F , -6°C
Humidity: 56%
Barometer: 29.70 inHg , 1005.8 hPa
Clouds: Overcast
Visibility: 10 miles , 16 km
Cloud details: Partly cloudy 4900 ft
Overcast 6000 ft
2021/03/02 02:56 KGON 020256Z 31010KT 10SM SCT049 OVC060 02/M06 A2970 RMK AO2 SLP056 T00171061 51007
KDXR - Danbury, Connecticut, USA
Distance from station: SW 47mi, 76km
Updated: Mon, 01-Mar-2021 9:53pm EST
Mostly cloudy
Mostly cloudy
 Wind from WNW
Wind: WNW 15 mph , 24 km/h, Gust: 38 mph , 61 km/h
Temperature: 34°F , 1°C
Wind Chill: 24°F , -4°C
Dew Point: 12°F , -11°C
Humidity: 41%
Barometer: 29.80 inHg , 1009.1 hPa
Clouds: Mostly cloudy
Visibility: 10 miles , 16 km
Cloud details: Mostly cloudy 6000 ft
2021/03/02 02:53 KDXR 020253Z 29013G33KT 10SM BKN060 01/M11 A2980 RMK AO2 PK WND 29033/0154 SLP093 T00061111 53025
 
KPSF - Pittsfield, Massachusetts, USA
Distance from station: NNW 54mi, 87km
Updated: Mon, 01-Mar-2021 10:40pm EST
Overcast
Overcast
 Wind from WNW
Wind: WNW 26 mph , 43 km/h, Gust: 52 mph , 83 km/h
Temperature: 18°F , -8°C
Wind Chill: -0°F , -18°C
Dew Point: 9°F , -13°C
Humidity: 68%
Barometer: 29.74 inHg , 1007.1 hPa
Clouds: Overcast
Visibility: 9 miles , 14 km
Cloud details: Mostly cloudy 3300 ft
Overcast 4500 ft
2021/03/02 03:40 KPSF 020340Z AUTO 29023G45KT 9SM BKN033 OVC045 M08/M13 A2974 RMK AO2 PK WND 28049/0300 SNB00E36 P0000 T10781128
KWST - Westerly, Rhode Island, USA
Distance from station: ESE 56mi, 91km
Updated: Mon, 01-Mar-2021 9:53pm EST
Overcast
Overcast
 Wind from WNW
Wind: WNW 8 mph , 13 km/h
Temperature: 34°F , 1°C
Wind Chill: 27°F , -3°C
Dew Point: 19°F , -7°C
Humidity: 56%
Barometer: 29.69 inHg , 1005.4 hPa
Clouds: Overcast
Visibility: 10 miles , 16 km
Cloud details: Partly cloudy 5000 ft
Overcast 7000 ft
2021/03/02 02:53 KWST 020253Z AUTO 29007KT 240V340 10SM SCT050 OVC070 01/M07 A2969 RMK AO2 SLP055 T00061072 51008
 
KORH - Worcester, Massachusetts, USA
Distance from station: NE 57mi, 92km
Updated: Mon, 01-Mar-2021 9:54pm EST
Partly cloudy
Partly cloudy
 Wind from W
Wind: W 29 mph , 46 km/h, Gust: 45 mph , 72 km/h
Temperature: 28°F , -2°C
Wind Chill: 12°F , -11°C
Dew Point: 9°F , -13°C
Humidity: 43%
Barometer: 29.59 inHg , 1002 hPa
Clouds: Partly cloudy
Visibility: 10 miles , 16 km
Cloud details: Partly cloudy 5500 ft
2021/03/02 02:54 KORH 020254Z AUTO 28025G39KT 10SM SCT055 M02/M13 A2959 RMK AO2 PK WND 30054/0228 SNB31E40 SLP029 LAST AUGMENTED OBS P0000 60000 T10221133 51003
KPOU - Poughkeepsie, New York, USA
Distance from station: W 60mi, 96km
Updated: Mon, 01-Mar-2021 9:53pm EST
Few Clouds
Few Clouds
 Wind from WNW
Wind: WNW 24 mph , 39 km/h, Gust: 36 mph , 57 km/h
Temperature: 30°F , -1°C
Wind Chill: 16°F , -9°C
Dew Point: 10°F , -12°C
Humidity: 43%
Barometer: 29.84 inHg , 1010.5 hPa
Clouds: Few Clouds
Visibility: 10 miles , 16 km
Cloud details: Few Clouds 6000 ft
2021/03/02 02:53 KPOU 020253Z AUTO 30021G31KT 10SM FEW060 M01/M12 A2984 RMK AO2 PK WND 29033/0216 SLP103 60000 T10061122 53036 TSNO
 
KORE - Orange, Massachusetts, USA
Distance from station: NNE 60mi, 97km
Updated: Mon, 01-Mar-2021 9:52pm EST
Light snow, Partly cloudy
Light snow, Partly cloudy
 Wind from W
Wind: W 25 mph , 41 km/h, Gust: 45 mph , 72 km/h
Temperature: 27°F , -3°C
Wind Chill: 12°F , -11°C
Dew Point: 12°F , -11°C
Humidity: 54%
Barometer: 29.67 inHg , 1004.7 hPa
Summary: Light Snow
Clouds: Partly cloudy
Visibility: 9 miles , 14 km
Cloud details: Partly cloudy 3900 ft
2021/03/02 02:52 KORE 020252Z AUTO 28022G39KT 9SM -SN SCT039 M03/M11 A2967 RMK AO2 PK WND 28040/0202 SNB02E38B42 SLP054 P0000 60000 T10331111 53017
KHTO - East Hampton, New York, USA
Distance from station: SSE 62mi, 99km
Updated: Mon, 01-Mar-2021 10:35pm EST
Mostly cloudy
Mostly cloudy
 Wind from WNW
Wind: WNW 23 mph , 37 km/h, Gust: 36 mph , 57 km/h
Temperature: 34°F , 1°C
Wind Chill: 22°F , -6°C
Dew Point: 21°F , -6°C
Humidity: 60%
Barometer: 29.74 inHg , 1007.1 hPa
Clouds: Mostly cloudy
Visibility: 10 miles , 16 km
Cloud details: Partly cloudy 4800 ft
Mostly cloudy 5500 ft
2021/03/02 03:35 KHTO 020335Z AUTO 30020G31KT 10SM SCT048 BKN055 01/M06 A2974 RMK AO2 T00131065
 
KFOK - Westhampton Beac, New York, USA
Distance from station: S 63mi, 102km
Updated: Mon, 01-Mar-2021 9:53pm EST
Few Clouds
Few Clouds
 Wind from WNW
Wind: WNW 25 mph , 41 km/h, Gust: 43 mph , 69 km/h
Temperature: 36°F , 2°C
Wind Chill: 24°F , -4°C
Dew Point: 18°F , -8°C
Humidity: 48%
Barometer: 29.76 inHg , 1007.8 hPa
Clouds: Few Clouds
Visibility: 10 miles , 16 km
Cloud details: Few Clouds 6500 ft
2021/03/02 02:53 KFOK 020253Z 30022G37KT 10SM FEW065 02/M08 A2976 RMK AO2 PK WND 29037/0249 SLP077 T00221083 50011
KMTP - Montauk, New York, USA
Distance from station: SE 64mi, 104km
Updated: Mon, 01-Mar-2021 9:54pm EST

 Wind from WNW
Wind: WNW 21 mph , 33 km/h, Gust: 38 mph , 61 km/h
Temperature: 39°F , 4°C
Wind Chill: 29°F , -2°C
Dew Point: 23°F , -5°C
Humidity: 52%
Barometer: 29.71 inHg , 1006.1 hPa
2021/03/02 02:54 KMTP 020254Z AUTO 29018G33KT 04/M05 A2971 RMK AO1 PK WND 29033/0245 SLP061 T00391050 51010